Time;durP1;ratioP1;P1;durP2;ratioP2;P2;SDS_P1;SDS_P2;PMS_P1;PMS_P2;Temp;Humidity;BMP_temperature;BMP_pressure;BME280_temperature;BME280_humidity;BME280_pressure;Samples;Min_cycle;Max_cycle;Signal;HPM_P1;HPM_P2
2021/05/19 00:01:33;;;;;;;2.30;1.90;;;9.40;99.90;;;;;;5094820;28;20940;-66
2021/05/19 00:03:59;;;;;;;4.23;1.50;;;9.80;99.90;;;;;;5093682;28;20476;-66
2021/05/19 00:06:26;;;;;;;1.87;1.40;;;9.70;99.90;;;;;;5094371;28;20535;-66
2021/05/19 00:08:52;;;;;;;2.03;1.63;;;9.80;99.90;;;;;;5094193;28;20444;-66
2021/05/19 00:11:20;;;;;;;1.60;1.50;;;9.60;99.90;;;;;;5093953;28;20476;-66
2021/05/19 00:13:46;;;;;;;3.20;1.77;;;9.70;99.90;;;;;;5094130;28;20475;-66
2021/05/19 00:16:13;;;;;;;1.60;1.50;;;9.50;99.90;;;;;;5093547;28;20518;-66
2021/05/19 00:18:39;;;;;;;2.07;1.50;;;9.60;99.90;;;;;;5094136;28;20444;-66
2021/05/19 00:21:07;;;;;;;2.00;1.60;;;9.60;99.90;;;;;;5093352;28;20455;-66
2021/05/19 00:23:34;;;;;;;5.23;3.40;;;9.50;99.90;;;;;;5093664;28;20454;-66
2021/05/19 00:26:00;;;;;;;3.10;1.77;;;9.50;99.90;;;;;;5093722;28;20532;-66
2021/05/19 00:28:27;;;;;;;4.40;1.70;;;9.40;99.90;;;;;;5093954;28;20455;-66
2021/05/19 00:30:56;;;;;;;2.27;1.63;;;9.30;99.90;;;;;;5093458;28;20446;-66
2021/05/19 00:33:22;;;;;;;2.60;2.03;;;9.20;99.90;;;;;;5093896;28;20973;-66
2021/05/19 00:35:49;;;;;;;1.73;1.60;;;9.40;99.90;;;;;;5094145;28;20535;-66
2021/05/19 00:38:16;;;;;;;2.57;1.97;;;9.30;99.90;;;;;;5093432;28;20964;-66
2021/05/19 00:40:42;;;;;;;3.97;2.50;;;9.20;99.90;;;;;;5093587;28;20941;-66
2021/05/19 00:43:09;;;;;;;1.87;1.70;;;9.20;99.90;;;;;;5093393;28;20456;-66
2021/05/19 00:45:36;;;;;;;3.30;1.63;;;9.10;99.90;;;;;;5093184;28;20451;-66
2021/05/19 00:48:03;;;;;;;2.03;1.90;;;9.20;99.90;;;;;;5092797;28;20528;-66
2021/05/19 00:50:31;;;;;;;2.63;1.80;;;9.20;99.90;;;;;;5093791;28;20527;-66
2021/05/19 00:52:58;;;;;;;1.90;1.70;;;9.30;99.90;;;;;;5092598;28;20578;-67
2021/05/19 00:55:25;;;;;;;13.73;2.40;;;9.30;99.90;;;;;;5093793;28;20440;-66
2021/05/19 00:57:56;;;;;;;1.90;1.70;;;9.30;99.90;;;;;;5093598;28;20532;-66
2021/05/19 01:00:25;;;;;;;2.37;1.83;;;9.40;99.90;;;;;;5093138;28;20432;-66
2021/05/19 01:02:53;;;;;;;2.93;2.07;;;9.40;99.90;;;;;;5092655;28;20991;-66
2021/05/19 01:05:26;;;;;;;3.00;2.47;;;9.50;99.90;;;;;;5093686;28;20969;-66
2021/05/19 01:10:37;;;;;;;4.33;1.70;;;9.50;99.90;;;;;;5093121;28;20432;-66
2021/05/19 01:13:04;;;;;;;2.57;1.63;;;9.40;99.90;;;;;;5091221;28;20822;-66
2021/05/19 01:15:31;;;;;;;2.90;2.27;;;9.40;99.90;;;;;;5091973;28;20518;-67
2021/05/19 01:17:59;;;;;;;2.00;1.80;;;9.50;99.90;;;;;;5092330;28;20448;-66
2021/05/19 01:20:26;;;;;;;2.00;1.80;;;9.40;99.90;;;;;;5093093;28;20437;-68
2021/05/19 01:22:54;;;;;;;2.50;1.50;;;9.40;99.90;;;;;;5093111;28;20482;-66
2021/05/19 01:25:20;;;;;;;3.60;1.70;;;9.40;99.90;;;;;;5093389;28;20484;-66
2021/05/19 01:27:52;;;;;;;2.43;2.10;;;9.40;99.90;;;;;;5092397;28;20444;-66
2021/05/19 01:30:20;;;;;;;2.97;1.70;;;9.40;99.90;;;;;;5092510;28;20465;-66
2021/05/19 01:32:47;;;;;;;2.77;1.90;;;9.40;99.90;;;;;;5092731;28;20482;-66
2021/05/19 01:35:13;;;;;;;4.80;2.00;;;9.40;99.90;;;;;;5092186;28;20448;-66
2021/05/19 01:37:40;;;;;;;8.00;1.97;;;9.40;99.90;;;;;;5092831;28;20445;-66
2021/05/19 01:40:09;;;;;;;3.70;2.37;;;9.40;99.90;;;;;;5091958;28;20437;-66
2021/05/19 01:42:35;;;;;;;3.47;1.87;;;9.50;99.90;;;;;;5092701;28;20445;-66
2021/05/19 01:45:02;;;;;;;2.00;1.80;;;9.50;99.90;;;;;;5092381;28;20532;-66
2021/05/19 01:47:40;;;;;;;3.50;1.77;;;9.60;99.90;;;;;;5092352;28;20448;-67
2021/05/19 01:50:08;;;;;;;3.57;1.77;;;9.60;99.90;;;;;;5071801;28;20433;-66
2021/05/19 01:52:36;;;;;;;2.60;2.00;;;9.80;99.90;;;;;;5072068;28;20490;-66
2021/05/19 01:55:04;;;;;;;3.10;2.13;;;9.70;99.90;;;;;;5078537;28;20479;-66
2021/05/19 01:57:31;;;;;;;3.00;2.10;;;9.70;99.90;;;;;;5092280;28;20443;-66
2021/05/19 01:59:58;;;;;;;2.10;1.73;;;9.60;99.90;;;;;;5091460;28;20984;-66
2021/05/19 02:02:24;;;;;;;2.20;2.00;;;9.70;99.90;;;;;;5092145;28;20479;-66
2021/05/19 02:04:52;;;;;;;3.30;2.23;;;9.60;99.90;;;;;;5091948;28;20465;-66
2021/05/19 02:07:19;;;;;;;2.23;1.77;;;9.70;99.90;;;;;;5092966;28;20539;-67
2021/05/19 02:09:45;;;;;;;2.50;2.13;;;9.60;99.90;;;;;;5092606;28;20524;-66
2021/05/19 02:12:12;;;;;;;4.40;1.83;;;9.60;99.90;;;;;;5091856;28;20614;-66
2021/05/19 02:14:39;;;;;;;2.80;2.20;;;9.60;99.90;;;;;;5092488;28;20437;-66
2021/05/19 02:17:06;;;;;;;1.77;1.50;;;9.60;99.90;;;;;;5091612;28;20452;-66
2021/05/19 02:19:33;;;;;;;2.77;2.30;;;9.50;99.90;;;;;;5092059;28;20813;-66
2021/05/19 02:22:00;;;;;;;4.33;2.17;;;9.60;99.90;;;;;;5091027;28;20445;-67
2021/05/19 02:24:26;;;;;;;2.47;1.90;;;9.50;99.90;;;;;;5092435;28;20473;-66
2021/05/19 02:26:52;;;;;;;2.63;2.37;;;9.60;99.90;;;;;;5092049;28;20437;-66
2021/05/19 02:29:19;;;;;;;2.00;1.80;;;9.60;99.90;;;;;;5091114;28;20716;-66
2021/05/19 02:31:46;;;;;;;4.53;2.17;;;9.70;99.90;;;;;;5091900;28;20533;-67
2021/05/19 02:34:13;;;;;;;2.80;1.77;;;9.60;99.90;;;;;;5090678;28;20956;-66
2021/05/19 02:36:41;;;;;;;1.63;1.53;;;9.70;99.90;;;;;;5091697;28;20527;-66
2021/05/19 02:39:10;;;;;;;1.70;1.60;;;9.60;99.90;;;;;;5091137;28;20447;-66
2021/05/19 02:41:36;;;;;;;2.53;2.07;;;9.60;99.90;;;;;;5091762;28;20551;-67
2021/05/19 02:44:05;;;;;;;2.10;1.80;;;9.60;99.90;;;;;;5091111;28;20443;-66
2021/05/19 02:46:31;;;;;;;2.30;2.10;;;9.60;99.90;;;;;;5091205;28;20455;-66
2021/05/19 02:49:02;;;;;;;2.37;2.17;;;9.60;99.90;;;;;;5091927;28;20454;-66
2021/05/19 02:51:29;;;;;;;3.00;2.30;;;9.60;99.90;;;;;;5078852;28;20578;-66
2021/05/19 02:53:56;;;;;;;4.50;1.63;;;9.50;99.90;;;;;;5091071;28;20523;-66
2021/05/19 02:56:22;;;;;;;2.20;1.90;;;9.60;99.90;;;;;;5090542;28;21015;-66
2021/05/19 02:58:49;;;;;;;2.23;2.03;;;9.60;99.90;;;;;;5091415;28;20515;-66
2021/05/19 03:01:15;;;;;;;2.93;2.10;;;9.50;99.90;;;;;;5090441;28;20777;-68
2021/05/19 03:03:42;;;;;;;2.60;1.90;;;9.50;99.90;;;;;;5091208;28;20436;-67
2021/05/19 03:06:09;;;;;;;2.20;1.80;;;9.60;99.90;;;;;;5090816;28;20445;-66
2021/05/19 03:08:36;;;;;;;4.80;2.40;;;9.60;99.90;;;;;;5090901;28;20447;-66
2021/05/19 03:11:03;;;;;;;2.77;2.30;;;9.70;99.90;;;;;;5090293;28;20440;-66
2021/05/19 03:13:30;;;;;;;2.50;2.30;;;9.80;99.90;;;;;;5090856;28;20484;-67
2021/05/19 03:15:56;;;;;;;3.83;2.00;;;9.80;99.90;;;;;;5091526;28;20790;-67
2021/05/19 03:18:23;;;;;;;2.40;2.20;;;9.70;99.90;;;;;;5088335;28;20441;-66
2021/05/19 03:20:50;;;;;;;2.13;1.93;;;9.60;99.90;;;;;;5090518;28;20445;-66
2021/05/19 03:23:17;;;;;;;4.30;2.30;;;9.60;99.90;;;;;;5090308;28;20461;-66
2021/05/19 03:25:44;;;;;;;3.40;2.30;;;9.50;99.90;;;;;;5090712;28;20440;-66
2021/05/19 03:28:11;;;;;;;2.33;2.13;;;9.40;99.90;;;;;;5090534;28;20461;-66
2021/05/19 03:30:38;;;;;;;9.40;2.20;;;9.30;99.90;;;;;;5091086;28;20533;-66
2021/05/19 03:33:05;;;;;;;4.17;2.30;;;9.40;99.90;;;;;;5090214;28;20474;-66
2021/05/19 03:35:31;;;;;;;4.63;2.37;;;9.50;99.90;;;;;;5090758;28;20520;-66
2021/05/19 03:37:58;;;;;;;6.60;2.10;;;9.40;99.90;;;;;;5091062;28;20870;-66
2021/05/19 03:40:25;;;;;;;3.00;2.30;;;9.60;99.90;;;;;;5089371;28;20455;-67
2021/05/19 03:42:51;;;;;;;2.67;2.10;;;9.70;99.90;;;;;;5090992;28;20466;-67
2021/05/19 03:45:21;;;;;;;2.60;2.10;;;9.50;99.90;;;;;;5090759;28;20614;-68
2021/05/19 03:47:50;;;;;;;2.27;2.03;;;9.50;99.90;;;;;;5091324;28;20511;-69
2021/05/19 03:50:18;;;;;;;5.10;2.30;;;9.40;99.90;;;;;;5090372;28;20447;-67
2021/05/19 03:52:44;;;;;;;2.40;1.93;;;9.50;99.90;;;;;;5090999;28;20836;-67
2021/05/19 03:55:13;;;;;;;2.33;2.10;;;9.60;99.90;;;;;;5090566;28;20424;-67
2021/05/19 03:57:41;;;;;;;2.77;2.03;;;9.60;99.90;;;;;;5091201;28;20523;-67
2021/05/19 04:00:10;;;;;;;2.10;2.00;;;9.60;99.90;;;;;;5090431;28;20464;-67
2021/05/19 04:02:36;;;;;;;2.00;1.57;;;9.60;99.90;;;;;;5090763;28;20937;-69
2021/05/19 04:05:04;;;;;;;2.10;1.73;;;9.60;99.90;;;;;;5090859;28;20880;-68
2021/05/19 04:07:30;;;;;;;8.27;2.70;;;9.80;99.90;;;;;;5091007;28;20441;-69
2021/05/19 04:09:56;;;;;;;12.63;10.40;;;9.90;99.90;;;;;;5090815;28;20490;-68
2021/05/19 04:12:23;;;;;;;4.03;2.97;;;9.80;99.90;;;;;;5090065;28;20484;-68
2021/05/19 04:14:50;;;;;;;4.53;2.00;;;9.80;99.90;;;;;;5090728;28;20444;-68
2021/05/19 04:17:16;;;;;;;4.13;2.37;;;9.70;99.90;;;;;;5090361;28;20539;-67
2021/05/19 04:19:43;;;;;;;2.10;1.90;;;9.70;99.90;;;;;;5091089;28;20878;-67
2021/05/19 04:22:09;;;;;;;2.13;1.93;;;9.80;99.90;;;;;;5094002;28;20543;-67
2021/05/19 04:24:35;;;;;;;6.47;2.97;;;9.90;99.90;;;;;;5094489;28;20468;-70
2021/05/19 04:27:03;;;;;;;3.07;2.33;;;10.10;99.90;;;;;;5094298;28;20440;-68
2021/05/19 04:29:29;;;;;;;6.60;4.90;;;10.00;99.90;;;;;;5093891;28;20450;-68
2021/05/19 04:31:56;;;;;;;3.10;2.10;;;10.00;99.90;;;;;;5094326;28;20474;-68
2021/05/19 04:34:23;;;;;;;2.33;1.87;;;10.20;99.90;;;;;;5093468;28;20948;-67
2021/05/19 04:36:49;;;;;;;3.53;2.00;;;10.20;99.90;;;;;;5093955;28;20870;-67
2021/05/19 04:39:16;;;;;;;2.33;1.93;;;10.30;99.90;;;;;;5093671;28;20840;-68
2021/05/19 04:41:42;;;;;;;3.03;1.93;;;10.30;99.90;;;;;;5093950;28;20516;-69
2021/05/19 04:44:08;;;;;;;3.77;1.90;;;10.40;99.90;;;;;;5093629;28;20491;-68
2021/05/19 04:46:37;;;;;;;2.47;2.27;;;10.40;99.90;;;;;;5093869;28;20449;-69
2021/05/19 04:49:05;;;;;;;2.73;2.00;;;10.50;99.90;;;;;;5094067;28;20527;-69
2021/05/19 04:51:31;;;;;;;3.40;1.93;;;10.50;99.90;;;;;;5093921;28;20451;-69
2021/05/19 04:53:58;;;;;;;2.40;1.60;;;10.70;99.90;;;;;;5093548;28;20609;-69
2021/05/19 04:56:24;;;;;;;2.50;1.83;;;10.70;99.90;;;;;;5093394;28;20451;-69
2021/05/19 04:58:51;;;;;;;2.83;2.43;;;10.70;99.90;;;;;;5093662;28;20535;-69
2021/05/19 05:01:17;;;;;;;2.63;2.10;;;10.80;99.90;;;;;;5093161;28;20524;-69
2021/05/19 05:03:43;;;;;;;3.93;2.43;;;10.80;99.90;;;;;;5093846;28;20523;-69
2021/05/19 05:06:10;;;;;;;2.57;2.13;;;10.80;99.90;;;;;;5092875;28;20439;-69
2021/05/19 05:08:37;;;;;;;2.87;2.20;;;10.90;99.90;;;;;;5093826;28;20436;-69
2021/05/19 05:11:03;;;;;;;2.10;1.80;;;10.90;99.90;;;;;;5093399;28;20460;-69
2021/05/19 05:13:30;;;;;;;1.83;1.73;;;11.30;99.90;;;;;;5092710;28;20747;-69
2021/05/19 05:15:56;;;;;;;3.80;2.37;;;11.70;99.90;;;;;;5093628;28;20448;-69
2021/05/19 05:18:23;;;;;;;4.60;2.20;;;11.60;99.90;;;;;;5093016;28;20523;-69
2021/05/19 05:20:49;;;;;;;2.10;1.73;;;11.60;99.90;;;;;;5093879;28;20444;-70
2021/05/19 05:23:16;;;;;;;2.43;2.00;;;12.00;99.90;;;;;;5092610;28;20551;-69
2021/05/19 05:25:43;;;;;;;2.93;2.07;;;12.10;99.90;;;;;;5093130;28;20539;-69
2021/05/19 05:28:09;;;;;;;1.90;1.80;;;12.00;99.90;;;;;;5092608;28;20905;-67
2021/05/19 05:30:36;;;;;;;2.40;2.20;;;11.60;99.90;;;;;;5093335;28;20509;-70
2021/05/19 05:33:02;;;;;;;15.03;9.60;;;11.40;99.90;;;;;;5092626;28;20555;-70
2021/05/19 05:35:29;;;;;;;2.50;2.20;;;11.40;99.90;;;;;;5092785;28;20795;-70
2021/05/19 05:37:55;;;;;;;2.70;2.17;;;11.30;99.90;;;;;;5093073;28;20859;-70
2021/05/19 05:40:22;;;;;;;2.93;2.73;;;11.30;99.90;;;;;;5092754;28;20531;-70
2021/05/19 05:42:48;;;;;;;2.60;2.03;;;11.30;99.90;;;;;;5092909;28;20539;-70
2021/05/19 05:45:15;;;;;;;1.93;1.83;;;11.20;99.90;;;;;;5092232;28;20436;-70
2021/05/19 05:47:42;;;;;;;2.63;2.43;;;11.00;99.90;;;;;;5092824;28;20519;-70
2021/05/19 05:50:09;;;;;;;2.47;2.10;;;11.00;99.90;;;;;;5092784;28;20483;-69
2021/05/19 05:52:36;;;;;;;2.60;2.40;;;11.00;99.90;;;;;;5092630;28;20582;-70
2021/05/19 05:55:03;;;;;;;2.43;2.23;;;10.90;99.90;;;;;;5092627;28;21020;-70
2021/05/19 05:57:31;;;;;;;6.63;2.70;;;10.80;99.90;;;;;;5092205;28;20448;-69
2021/05/19 05:59:57;;;;;;;3.37;2.53;;;10.70;99.90;;;;;;5092607;28;20495;-70
2021/05/19 06:02:24;;;;;;;3.90;3.50;;;10.60;99.90;;;;;;5092317;28;20483;-70
2021/05/19 06:04:50;;;;;;;3.20;2.90;;;10.50;99.90;;;;;;5092069;28;21140;-70
2021/05/19 06:07:16;;;;;;;3.23;2.20;;;10.50;99.90;;;;;;5091628;28;20432;-70
2021/05/19 06:09:50;;;;;;;3.07;2.83;;;10.50;99.90;;;;;;5092554;28;20493;-70
2021/05/19 06:12:16;;;;;;;3.90;3.10;;;10.40;99.90;;;;;;5092006;28;20468;-70
2021/05/19 06:14:43;;;;;;;4.00;3.47;;;10.50;99.90;;;;;;5092424;28;20440;-70
2021/05/19 06:17:11;;;;;;;2.90;2.63;;;10.60;99.90;;;;;;5092513;28;20445;-70
2021/05/19 06:19:38;;;;;;;4.73;3.10;;;10.70;99.90;;;;;;5092700;28;20472;-70
2021/05/19 06:22:04;;;;;;;4.87;2.83;;;10.70;99.90;;;;;;5092377;28;20480;-71
2021/05/19 06:24:30;;;;;;;3.10;2.80;;;10.80;99.90;;;;;;5091770;28;20531;-70
2021/05/19 06:26:57;;;;;;;3.00;2.57;;;10.90;99.90;;;;;;5092184;28;20475;-70
2021/05/19 06:29:23;;;;;;;2.90;2.70;;;11.00;99.90;;;;;;5091294;28;20440;-70
2021/05/19 06:31:50;;;;;;;8.90;4.57;;;11.40;99.90;;;;;;5091781;28;20437;-70
2021/05/19 06:34:17;;;;;;;4.20;3.23;;;11.50;99.90;;;;;;5091476;28;20437;-71
2021/05/19 06:36:46;;;;;;;2.80;2.60;;;11.70;99.90;;;;;;5092411;28;20532;-70
2021/05/19 06:39:12;;;;;;;5.10;2.93;;;11.80;99.90;;;;;;5091962;28;20472;-71
2021/05/19 06:41:42;;;;;;;7.17;3.13;;;11.80;99.90;;;;;;5091945;28;20532;-71
2021/05/19 06:44:09;;;;;;;3.20;2.60;;;12.10;99.90;;;;;;5091241;28;20471;-71
2021/05/19 06:46:35;;;;;;;6.07;2.93;;;12.10;99.90;;;;;;5091244;28;20444;-71
2021/05/19 06:49:03;;;;;;;3.73;2.27;;;12.40;99.90;;;;;;5091718;28;20488;-70
2021/05/19 06:51:30;;;;;;;3.00;2.40;;;12.40;99.90;;;;;;5091033;28;20447;-71
2021/05/19 06:53:57;;;;;;;2.47;2.27;;;12.50;99.90;;;;;;5091656;28;20621;-71
2021/05/19 06:56:23;;;;;;;7.20;2.50;;;12.60;99.90;;;;;;5091057;28;20539;-71
2021/05/19 06:58:49;;;;;;;2.50;2.30;;;12.60;99.90;;;;;;5091369;28;20558;-71
2021/05/19 07:01:16;;;;;;;5.43;2.30;;;12.50;99.90;;;;;;5091062;28;20451;-71
2021/05/19 07:03:42;;;;;;;3.03;2.10;;;12.50;99.90;;;;;;5091509;28;20441;-71
2021/05/19 07:06:09;;;;;;;4.10;2.07;;;12.30;96.20;;;;;;5090924;28;20535;-71
2021/05/19 07:08:36;;;;;;;3.30;2.93;;;12.50;1.00;;;;;;5090607;28;20436;-71
2021/05/19 07:11:02;;;;;;;2.73;2.53;;;12.50;1.00;;;;;;5091502;28;20432;-71
2021/05/19 07:13:29;;;;;;;1.70;1.60;;;;;;;;;;5090889;28;20508;-71
2021/05/19 07:15:56;;;;;;;2.40;2.20;;;12.60;1.00;;;;;;5091123;28;20531;-71
2021/05/19 07:18:23;;;;;;;2.47;1.73;;;13.30;99.90;;;;;;5090889;28;20440;-71
2021/05/19 07:20:49;;;;;;;3.77;3.10;;;13.30;99.90;;;;;;5091437;28;20903;-72
2021/05/19 07:23:17;;;;;;;3.63;2.10;;;13.60;63.70;;;;;;5090590;28;20850;-69
2021/05/19 07:25:43;;;;;;;2.30;2.00;;;13.70;1.00;;;;;;5090339;28;20944;-72
2021/05/19 07:28:10;;;;;;;3.53;2.03;;;13.60;1.00;;;;;;5091254;28;20827;-72
2021/05/19 07:30:37;;;;;;;1.63;1.53;;;13.60;4.50;;;;;;5090698;28;20441;-72
2021/05/19 07:33:05;;;;;;;1.97;1.77;;;13.40;1.00;;;;;;5090670;28;20543;-72
2021/05/19 07:35:32;;;;;;;2.07;1.87;;;13.00;99.90;;;;;;5090810;28;20525;-72
2021/05/19 07:37:59;;;;;;;3.60;1.70;;;12.70;99.90;;;;;;5091141;28;20432;-72
2021/05/19 07:40:27;;;;;;;3.00;2.00;;;12.50;1.00;;;;;;5090580;28;20444;-72
2021/05/19 07:42:54;;;;;;;2.20;2.00;;;12.50;1.00;;;;;;5091183;28;20452;-72
2021/05/19 07:45:20;;;;;;;3.90;1.63;;;12.50;1.00;;;;;;5090268;28;20531;-72
2021/05/19 07:47:47;;;;;;;5.83;2.10;;;12.50;1.00;;;;;;5091068;28;20531;-72
2021/05/19 07:50:14;;;;;;;2.73;1.90;;;12.50;1.00;;;;;;5090827;28;20965;-72
2021/05/19 07:52:41;;;;;;;3.77;1.90;;;12.50;1.00;;;;;;5089837;28;20643;-72
2021/05/19 07:55:16;;;;;;;2.40;2.20;;;12.60;1.00;;;;;;5092010;28;20452;-72
2021/05/19 07:57:48;;;;;;;2.67;2.33;;;12.60;1.00;;;;;;5094872;28;20452;-73
2021/05/19 08:00:17;;;;;;;2.33;1.87;;;12.50;1.00;;;;;;5094943;28;20490;-72
2021/05/19 08:02:43;;;;;;;2.73;2.20;;;12.60;1.00;;;;;;5094671;28;20943;-72
2021/05/19 08:05:11;;;;;;;3.83;2.83;;;12.60;1.00;;;;;;5094880;28;20472;-72
2021/05/19 08:07:38;;;;;;;2.17;1.97;;;12.50;1.00;;;;;;5094150;28;20443;-72
2021/05/19 08:10:05;;;;;;;2.57;2.03;;;12.60;1.00;;;;;;5094799;28;20440;-72
2021/05/19 08:12:32;;;;;;;3.17;2.30;;;12.70;1.00;;;;;;5094050;28;20484;-72
2021/05/19 08:14:59;;;;;;;2.77;2.50;;;12.70;1.00;;;;;;5094394;28;20506;-72
2021/05/19 08:17:25;;;;;;;2.50;2.27;;;12.80;1.00;;;;;;5094043;28;20451;-72
2021/05/19 08:19:52;;;;;;;3.77;2.27;;;13.00;99.90;;;;;;5094575;28;20849;-72
2021/05/19 08:22:19;;;;;;;3.10;1.90;;;13.10;1.00;;;;;;5094447;28;20826;-72
2021/05/19 08:24:45;;;;;;;3.03;2.10;;;13.10;1.00;;;;;;5094231;28;20475;-72
2021/05/19 08:27:12;;;;;;;4.50;2.07;;;13.20;99.90;;;;;;5094594;28;20436;-72
2021/05/19 08:29:42;;;;;;;2.10;1.87;;;13.60;1.00;;;;;;5093587;28;20531;-72
2021/05/19 08:32:10;;;;;;;3.00;2.17;;;13.90;99.90;;;;;;5094271;28;20567;-72
2021/05/19 08:34:36;;;;;;;2.67;1.90;;;14.10;99.90;;;;;;5093624;28;20531;-72
2021/05/19 08:37:03;;;;;;;2.93;1.70;;;14.20;99.90;;;;;;5093929;28;20472;-72
2021/05/19 08:39:29;;;;;;;2.00;1.60;;;14.10;99.90;;;;;;5093372;28;21002;-72
2021/05/19 08:41:55;;;;;;;2.77;2.57;;;14.20;1.00;;;;;;5094130;28;20440;-72
2021/05/19 08:44:24;;;;;;;3.40;1.80;;;14.10;1.00;;;;;;5093221;28;20484;-72
2021/05/19 08:46:55;;;;;;;2.10;1.87;;;14.20;1.00;;;;;;5093772;28;20444;-72
2021/05/19 08:49:23;;;;;;;1.90;1.80;;;13.90;1.00;;;;;;5093296;28;20425;-69
2021/05/19 08:51:49;;;;;;;3.47;1.60;;;14.30;1.00;;;;;;5093478;28;20986;-72
2021/05/19 08:54:18;;;;;;;1.63;1.50;;;14.50;99.90;;;;;;5093960;28;20515;-72
2021/05/19 08:56:47;;;;;;;4.60;1.50;;;14.50;1.00;;;;;;5092905;28;20500;-73
2021/05/19 08:59:14;;;;;;;2.40;1.60;;;14.50;99.90;;;;;;5093777;28;20472;-72
2021/05/19 09:01:42;;;;;;;1.90;1.70;;;14.20;99.90;;;;;;5092797;28;20468;-73
2021/05/19 09:04:14;;;;;;;2.20;1.80;;;14.20;1.00;;;;;;5093682;28;20449;-72
2021/05/19 09:06:41;;;;;;;2.80;1.30;;;14.30;99.90;;;;;;5092232;28;21025;-72
2021/05/19 09:09:24;;;;;;;2.47;1.50;;;14.20;99.90;;;;;;5093267;28;20951;-72
2021/05/19 09:12:03;;;;;;;6.23;2.20;;;14.10;1.00;;;;;;5093401;28;20524;-73
2021/05/19 09:14:32;;;;;;;1.90;1.70;;;14.10;99.90;;;;;;5093039;28;20448;-72
2021/05/19 09:17:18;;;;;;;1.90;1.53;;;14.10;99.90;;;;;;5094057;28;20476;-72
2021/05/19 09:19:45;;;;;;;1.50;1.30;;;14.20;1.00;;;;;;5092749;28;20471;-72
2021/05/19 09:22:18;;;;;;;3.80;1.70;;;13.90;99.90;;;;;;5093492;28;20488;-72
2021/05/19 09:24:45;;;;;;;4.20;1.40;;;;;;;;;;5092492;28;20457;-72
2021/05/19 09:27:11;;;;;;;2.77;1.37;;;14.10;1.00;;;;;;5093108;28;20440;-73
2021/05/19 09:29:39;;;;;;;1.10;1.00;;;14.50;99.90;;;;;;5092529;28;20520;-72
2021/05/19 09:32:07;;;;;;;1.33;1.20;;;14.60;1.00;;;;;;5093061;28;20834;-72
2021/05/19 09:34:37;;;;;;;3.77;1.50;;;14.40;1.00;;;;;;5092399;28;20476;-72
2021/05/19 09:37:22;;;;;;;1.07;0.90;;;14.50;1.00;;;;;;5092981;28;20839;-73
2021/05/19 09:39:51;;;;;;;3.17;1.03;;;14.60;1.00;;;;;;5093211;28;20425;-73
2021/05/19 09:42:19;;;;;;;2.93;1.17;;;14.40;1.00;;;;;;5093575;28;20527;-72
2021/05/19 09:44:48;;;;;;;1.77;1.27;;;14.40;1.00;;;;;;5092520;28;20476;-73
2021/05/19 09:47:35;;;;;;;1.67;1.10;;;14.80;1.00;;;;;;5093025;28;20846;-73
2021/05/19 09:50:01;;;;;;;1.30;1.20;;;15.20;1.00;;;;;;5092883;28;20873;-73
2021/05/19 09:52:28;;;;;;;1.17;1.07;;;15.30;1.00;;;;;;5091833;28;20476;-73
2021/05/19 09:55:02;;;;;;;1.37;1.00;;;15.50;1.00;;;;;;5092741;28;20536;-73
2021/05/19 09:57:41;;;;;;;1.70;1.13;;;15.70;1.00;;;;;;5092373;28;20511;-74
2021/05/19 10:00:09;;;;;;;3.83;1.70;;;15.80;99.90;;;;;;5092756;28;20432;-73
2021/05/19 10:02:36;;;;;;;2.30;1.70;;;15.60;99.90;;;;;;5092131;28;20476;-74
2021/05/19 10:05:08;;;;;;;2.00;0.90;;;15.50;99.90;;;;;;5092494;28;20440;-75
2021/05/19 10:07:36;;;;;;;1.63;1.30;;;15.30;1.00;;;;;;5092177;28;20436;-73
2021/05/19 10:10:03;;;;;;;2.43;0.80;;;15.30;1.00;;;;;;5092258;28;20821;-75
2021/05/19 10:12:30;;;;;;;1.90;1.00;;;15.30;99.90;;;;;;5091295;28;20472;-73
2021/05/19 10:14:58;;;;;;;0.90;0.80;;;15.30;99.90;;;;;;5092102;28;20441;-75
2021/05/19 10:17:25;;;;;;;4.73;1.17;;;15.20;99.90;;;;;;5092361;28;20472;-73
2021/05/19 10:19:56;;;;;;;6.50;1.80;;;15.00;99.90;;;;;;5092356;28;20576;-73
2021/05/19 10:22:25;;;;;;;2.90;1.10;;;15.00;99.90;;;;;;5092215;28;20547;-74
2021/05/19 10:24:58;;;;;;;1.37;0.80;;;14.80;99.90;;;;;;5092246;28;20543;-75
2021/05/19 10:27:25;;;;;;;3.80;0.80;;;14.80;99.90;;;;;;5092206;28;20453;-73
2021/05/19 10:29:58;;;;;;;0.90;0.80;;;15.00;99.90;;;;;;5092202;28;20677;-73
2021/05/19 10:32:35;;;;;;;1.37;0.80;;;15.40;99.90;;;;;;5092030;28;20567;-73
2021/05/19 10:35:03;;;;;;;0.90;0.70;;;15.60;99.90;;;;;;5091637;28;20481;-73
2021/05/19 10:37:50;;;;;;;3.03;0.70;;;16.00;99.90;;;;;;5091002;28;20444;-73
2021/05/19 10:40:29;;;;;;;1.20;0.80;;;16.20;99.90;;;;;;5091988;28;20511;-74
2021/05/19 10:43:01;;;;;;;0.77;0.77;;;16.00;99.90;;;;;;5091587;28;20454;-74
2021/05/19 10:45:28;;;;;;;0.97;0.87;;;16.20;99.90;;;;;;5092014;28;20469;-73
2021/05/19 10:47:54;;;;;;;1.10;0.63;;;16.30;99.90;;;;;;5091698;28;20472;-74
2021/05/19 10:50:31;;;;;;;2.10;1.00;;;16.40;99.90;;;;;;5091442;28;20451;-74
2021/05/19 10:58:52;;;;;;;1.87;1.10;;;16.70;99.90;;;;;;5090984;28;20396;-74
2021/05/19 11:02:02;;;;;;;1.93;0.97;;;16.50;99.90;;;;;;5091754;28;20436;-73
2021/05/19 11:04:28;;;;;;;1.03;0.80;;;16.60;99.90;;;;;;5076018;28;20527;-74
2021/05/19 11:07:05;;;;;;;1.80;1.30;;;16.60;99.90;;;;;;5091711;28;20535;-73
2021/05/19 11:09:33;;;;;;;3.17;1.00;;;16.30;99.90;;;;;;5091118;28;20429;-74
2021/05/19 11:12:39;;;;;;;4.20;1.10;;;16.60;99.90;;;;;;5091475;28;20904;-74
2021/05/19 11:15:44;;;;;;;1.17;0.90;;;16.40;99.90;;;;;;5091364;28;20449;-75
2021/05/19 11:18:16;;;;;;;1.33;0.90;;;16.40;99.90;;;;;;5091592;28;20490;-74
2021/05/19 11:20:42;;;;;;;1.60;1.07;;;16.70;99.90;;;;;;5090575;28;20448;-74
2021/05/19 11:23:09;;;;;;;0.90;0.70;;;16.70;99.90;;;;;;5091673;28;20587;-75
2021/05/19 11:25:36;;;;;;;1.10;0.80;;;16.90;99.90;;;;;;5091077;28;20445;-73
2021/05/19 11:28:03;;;;;;;1.70;0.77;;;17.10;99.90;;;;;;5091334;28;20476;-73
2021/05/19 11:30:30;;;;;;;1.30;1.20;;;17.00;99.90;;;;;;5092364;28;20448;-74
2021/05/19 11:33:05;;;;;;;4.10;1.13;;;16.90;99.90;;;;;;5094915;28;20476;-74
2021/05/19 11:35:31;;;;;;;1.83;0.70;;;16.90;99.90;;;;;;5094906;28;20472;-69
2021/05/19 11:37:59;;;;;;;1.03;0.83;;;16.80;99.90;;;;;;5095455;28;20527;-74
2021/05/19 11:40:38;;;;;;;1.93;0.70;;;16.90;99.90;;;;;;5095570;28;20448;-74
2021/05/19 11:43:05;;;;;;;1.30;0.83;;;16.50;99.90;;;;;;5095523;28;20772;-75
2021/05/19 11:45:32;;;;;;;2.00;1.00;;;16.50;99.80;;;;;;5094558;28;20550;-72
2021/05/19 11:47:58;;;;;;;3.50;0.83;;;16.70;98.50;;;;;;5095214;28;20865;-73
2021/05/19 11:50:27;;;;;;;1.23;0.73;;;17.10;99.90;;;;;;5095012;28;20443;-74
2021/05/19 11:52:57;;;;;;;0.97;0.60;;;17.60;72.00;;;;;;5094029;28;20590;-72
2021/05/19 11:55:29;;;;;;;0.70;0.70;;;17.10;73.20;;;;;;5094988;28;20468;-74
2021/05/19 11:58:11;;;;;;;1.97;0.87;;;16.80;79.90;;;;;;5094438;28;20507;-74
2021/05/19 12:00:39;;;;;;;2.10;1.67;;;16.80;98.60;;;;;;5094371;28;20497;-74
2021/05/19 12:03:07;;;;;;;2.77;1.03;;;16.90;99.90;;;;;;5094898;28;20491;-74
2021/05/19 12:05:44;;;;;;;4.53;2.20;;;16.70;99.90;;;;;;5093876;28;20978;-73
2021/05/19 12:08:11;;;;;;;1.70;0.93;;;16.80;99.90;;;;;;5094800;28;20434;-74
2021/05/19 12:10:38;;;;;;;2.30;0.97;;;16.60;99.90;;;;;;5093920;28;20449;-74
2021/05/19 12:13:05;;;;;;;2.50;1.27;;;17.00;99.40;;;;;;5094656;28;20863;-73
2021/05/19 12:15:33;;;;;;;1.50;1.30;;;17.10;98.00;;;;;;5094388;28;20587;-72
2021/05/19 12:18:00;;;;;;;4.63;1.20;;;17.50;95.30;;;;;;5094539;28;20429;-73
2021/05/19 12:20:28;;;;;;;1.50;1.20;;;17.80;91.90;;;;;;5094221;28;20452;-73
2021/05/19 12:22:55;;;;;;;3.07;0.80;;;17.80;87.20;;;;;;5093745;28;20505;-72
2021/05/19 12:25:22;;;;;;;2.30;1.10;;;18.00;80.10;;;;;;5094402;28;20486;-72
2021/05/19 12:27:51;;;;;;;1.90;1.63;;;18.00;79.90;;;;;;5093940;28;20527;-72
2021/05/19 12:30:18;;;;;;;1.00;0.90;;;18.30;79.00;;;;;;5094354;28;20481;-73
2021/05/19 12:32:57;;;;;;;1.93;1.00;;;18.50;72.60;;;;;;5093400;28;20472;-72
2021/05/19 12:35:26;;;;;;;1.40;1.30;;;18.10;59.50;;;;;;5094310;28;20835;-72
2021/05/19 12:37:58;;;;;;;3.70;2.60;;;18.70;50.50;;;;;;5093802;28;20843;-72
2021/05/19 12:40:26;;;;;;;2.70;1.30;;;18.40;55.60;;;;;;5093847;28;20433;-73
2021/05/19 12:42:56;;;;;;;1.67;1.10;;;18.20;65.60;;;;;;5091898;28;20444;-72
2021/05/19 12:45:24;;;;;;;2.40;1.17;;;18.20;74.00;;;;;;5094164;28;20432;-72
2021/05/19 12:48:05;;;;;;;4.87;1.20;;;18.50;67.00;;;;;;5093813;28;20432;-72
2021/05/19 12:50:42;;;;;;;1.50;0.90;;;18.90;62.00;;;;;;5093648;28;20420;-72
2021/05/19 12:53:09;;;;;;;2.00;0.70;;;19.00;59.90;;;;;;5093255;28;21022;-72
2021/05/19 12:55:36;;;;;;;1.00;0.87;;;18.40;43.10;;;;;;5093371;28;20495;-71
2021/05/19 12:58:07;;;;;;;1.47;0.83;;;18.20;40.00;;;;;;5094013;28;20784;-72
2021/05/19 13:00:34;;;;;;;0.80;0.73;;;18.10;34.70;;;;;;5093867;28;20836;-73
2021/05/19 13:03:01;;;;;;;3.07;1.10;;;18.00;34.70;;;;;;5093422;28;20441;-73
2021/05/19 13:05:30;;;;;;;2.90;0.77;;;17.80;33.50;;;;;;5093858;28;20433;-72
2021/05/19 13:07:57;;;;;;;1.70;1.07;;;18.00;36.60;;;;;;5093247;28;20504;-72